Time;durP1;ratioP1;P1;durP2;ratioP2;P2;SDS_P1;SDS_P2;PMS_P1;PMS_P2;Temp;Humidity;BMP_temperature;BMP_pressure;BME280_temperature;BME280_humidity;BME280_pressure;Samples;Min_cycle;Max_cycle;Signal;HPM_P1;HPM_P2
2021/12/20 00:01:38;;;;;;;6.82;1.15;;;;;;;8.96;47.23;101520.38;5117176;28;20464;-72
2021/12/20 00:04:05;;;;;;;9.25;1.40;;;;;;;8.69;48.16;101515.09;5114650;27;20118;-72
2021/12/20 00:06:31;;;;;;;4.28;1.30;;;;;;;8.94;47.43;101517.81;5118354;28;20052;-72
2021/12/20 00:08:58;;;;;;;6.35;1.27;;;;;;;8.68;47.96;101510.75;5116352;28;20539;-72
2021/12/20 00:11:25;;;;;;;10.35;1.50;;;;;;;8.81;47.73;101507.16;5117930;28;20095;-72
2021/12/20 00:13:51;;;;;;;4.35;1.13;;;;;;;8.70;47.79;101493.75;5116830;28;20431;-73
2021/12/20 00:16:18;;;;;;;9.20;1.50;;;;;;;8.45;48.63;101501.63;5116993;28;20158;-73
2021/12/20 00:18:44;;;;;;;5.88;1.30;;;;;;;8.73;47.75;101488.22;5117119;28;20082;-72
2021/12/20 00:21:11;;;;;;;9.77;1.25;;;;;;;8.60;47.65;101497.13;5117886;28;20490;-72
2021/12/20 00:23:38;;;;;;;8.85;1.50;;;;;;;8.73;47.98;101501.50;5116848;28;20070;-72
2021/12/20 00:26:04;;;;;;;6.57;1.33;;;;;;;8.85;47.19;101506.94;5117196;28;20081;-72
2021/12/20 00:28:31;;;;;;;11.88;1.40;;;;;;;8.67;47.88;101503.72;5118233;28;20181;-72
2021/12/20 00:30:57;;;;;;;8.00;1.30;;;;;;;8.64;47.89;101510.09;5115711;28;20170;-72
2021/12/20 00:33:24;;;;;;;7.53;1.63;;;;;;;8.62;47.84;101511.13;5116300;28;20079;-72
2021/12/20 00:35:50;;;;;;;5.78;1.15;;;;;;;8.59;47.99;101506.91;5116171;28;20126;-72
2021/12/20 00:41:02;;;;;;;10.75;1.50;;;;;;;8.45;48.93;101512.25;5117625;28;20186;-72
2021/12/20 00:43:29;;;;;;;6.53;1.17;;;;;;;8.65;47.74;101511.78;5114743;28;20073;-72
2021/12/20 00:45:55;;;;;;;8.45;1.33;;;;;;;8.39;48.07;101516.19;5114913;28;20122;-72
2021/12/20 00:48:22;;;;;;;9.15;1.88;;;;;;;8.38;48.62;101508.31;5116140;28;20130;-73
2021/12/20 00:50:48;;;;;;;7.28;1.67;;;;;;;8.32;48.62;101518.34;5116449;28;20092;-72
2021/12/20 00:53:15;;;;;;;6.10;1.30;;;;;;;8.52;47.87;101505.59;5114456;28;20067;-72
2021/12/20 00:55:41;;;;;;;10.63;1.17;;;;;;;8.29;48.52;101523.03;5117466;28;20535;-72
2021/12/20 00:58:08;;;;;;;5.28;1.00;;;;;;;8.24;48.63;101515.38;5116488;28;20066;-73
2021/12/20 01:00:39;;;;;;;5.78;1.10;;;;;;;8.31;48.08;101526.41;5117236;28;20074;-73
2021/12/20 01:03:07;;;;;;;6.05;1.25;;;;;;;8.38;47.79;101522.44;5104376;28;20043;-72
2021/12/20 01:05:35;;;;;;;6.68;1.23;;;;;;;8.48;47.94;101515.56;5115569;28;20092;-72
2021/12/20 01:08:04;;;;;;;4.63;1.10;;;;;;;7.76;49.31;101520.19;5114885;28;20451;-72
2021/12/20 01:10:31;;;;;;;5.65;1.10;;;;;;;8.17;48.46;101521.16;5116406;28;20063;-72
2021/12/20 01:13:00;;;;;;;11.70;1.38;;;;;;;7.86;49.29;101529.28;5115465;28;20070;-72
2021/12/20 01:15:37;;;;;;;5.30;1.55;;;;;;;8.09;48.52;101524.31;5114648;28;20118;-73
2021/12/20 01:18:05;;;;;;;4.82;0.88;;;;;;;8.01;48.82;101535.41;5115632;28;20213;-72
2021/12/20 01:20:33;;;;;;;7.28;1.05;;;;;;;8.05;48.47;101526.31;5115797;28;20150;-72
2021/12/20 01:23:00;;;;;;;8.60;0.80;;;;;;;7.84;49.30;101528.53;5115322;28;20067;-72
2021/12/20 01:25:26;;;;;;;5.05;1.00;;;;;;;8.09;48.51;101540.22;5116277;28;20048;-72
2021/12/20 01:27:53;;;;;;;4.57;1.08;;;;;;;7.82;49.32;101551.63;5115879;28;20056;-72
2021/12/20 01:30:22;;;;;;;5.57;1.10;;;;;;;8.01;48.53;101553.16;5116821;28;20048;-72
2021/12/20 01:32:50;;;;;;;11.02;1.40;;;;;;;8.11;48.59;101554.28;5115733;28;20043;-72
2021/12/20 01:35:17;;;;;;;9.40;0.93;;;;;;;8.07;48.71;101550.09;5114897;28;20067;-72
2021/12/20 01:37:44;;;;;;;7.15;1.27;;;;;;;8.07;48.78;101548.31;5115218;28;20048;-72
2021/12/20 01:40:14;;;;;;;3.58;0.82;;;;;;;8.13;48.38;101549.69;5116526;28;20122;-73
2021/12/20 01:42:41;;;;;;;7.63;1.50;;;;;;;8.16;48.19;101552.16;5116874;28;20055;-72
2021/12/20 01:45:14;;;;;;;5.63;1.00;;;;;;;8.28;48.07;101538.13;5116597;28;20114;-72
2021/12/20 01:47:45;;;;;;;5.03;1.13;;;;;;;8.03;48.59;101548.59;5116710;28;20139;-72
2021/12/20 01:50:21;;;;;;;7.88;1.05;;;;;;;7.85;49.30;101562.06;5116344;28;20059;-72
2021/12/20 01:52:47;;;;;;;5.63;1.02;;;;;;;8.08;48.66;101565.09;5116463;28;20092;-72
2021/12/20 01:55:17;;;;;;;5.97;0.80;;;;;;;8.16;48.12;101562.78;5114184;28;20134;-73
2021/12/20 01:57:45;;;;;;;8.57;1.17;;;;;;;7.78;49.46;101565.22;5104871;28;20415;-73
2021/12/20 02:00:24;;;;;;;4.63;1.00;;;;;;;7.85;49.00;101562.06;5115980;28;20066;-73
2021/12/20 02:03:00;;;;;;;11.57;1.25;;;;;;;7.94;48.96;101557.16;5115035;28;20054;-73
2021/12/20 02:09:10;;;;;;;5.35;0.73;;;;;;;8.06;48.51;101551.03;5113632;28;20046;-73
2021/12/20 02:11:38;;;;;;;6.95;1.08;;;;;;;8.18;48.09;101554.75;5112629;28;20123;-72
2021/12/20 02:14:06;;;;;;;3.80;1.10;;;;;;;7.97;48.84;101549.00;5112999;28;20130;-72
2021/12/20 02:16:34;;;;;;;7.55;1.08;;;;;;;8.24;47.84;101560.50;5113729;28;20126;-72
2021/12/20 02:19:06;;;;;;;6.45;1.45;;;;;;;8.32;47.98;101555.53;5114277;28;20050;-72
2021/12/20 02:21:33;;;;;;;6.68;1.23;;;;;;;8.25;48.04;101546.28;5115435;28;20043;-72
2021/12/20 02:24:00;;;;;;;8.48;1.40;;;;;;;8.10;48.21;101549.91;5114671;28;20478;-73
2021/12/20 02:26:26;;;;;;;9.38;1.08;;;;;;;8.02;48.35;101552.19;5115324;28;20126;-72
2021/12/20 02:28:55;;;;;;;7.25;1.08;;;;;;;8.22;48.12;101562.41;5114636;28;20074;-73
2021/12/20 02:37:20;;;;;;;8.18;1.55;;;;;;;7.81;49.54;101557.06;5051686;28;20131;-72
2021/12/20 02:39:47;;;;;;;10.60;1.60;;;;;;;7.89;48.94;101553.91;5052524;28;20072;-72
2021/12/20 02:42:18;;;;;;;8.25;1.00;;;;;;;7.58;50.11;101543.41;5052598;28;20556;-72
2021/12/20 02:44:45;;;;;;;;;;;;;;;7.75;49.83;101533.53;5051728;28;20183;-71
2021/12/20 02:47:16;;;;;;;6.45;1.05;;;;;;;8.20;47.94;101550.16;5052649;28;19956;-72
2021/12/20 02:49:43;;;;;;;7.70;1.10;;;;;;;7.56;50.00;101545.31;5052038;28;20052;-72
2021/12/20 02:52:10;;;;;;;9.00;0.95;;;;;;;7.26;50.74;101537.41;5050481;28;20104;-72
2021/12/20 02:54:36;;;;;;;8.52;1.40;;;;;;;7.80;49.28;101548.25;5052191;28;20172;-73
2021/12/20 02:57:04;;;;;;;10.02;1.30;;;;;;;7.84;49.08;101565.69;5045161;28;20049;-72
2021/12/20 02:59:31;;;;;;;8.25;1.60;;;;;;;7.98;48.52;101554.19;5052454;28;20041;-72
2021/12/20 03:02:05;;;;;;;11.75;1.88;;;;;;;7.42;50.34;101544.47;5052082;28;20071;-73
2021/12/20 03:04:32;;;;;;;5.65;0.90;;;;;;;7.91;48.70;101552.03;5047878;28;20620;-72
2021/12/20 03:07:02;;;;;;;7.93;1.30;;;;;;;7.94;49.13;101555.34;5061377;28;20047;-72
2021/12/20 03:09:36;;;;;;;7.50;0.82;;;;;;;7.68;49.53;101554.31;5114504;28;20431;-72
2021/12/20 03:12:04;;;;;;;7.32;1.35;;;;;;;7.52;50.30;101556.22;5112943;28;20484;-72
2021/12/20 03:14:37;;;;;;;10.43;1.52;;;;;;;7.82;49.19;101562.25;5113619;28;20127;-72
2021/12/20 03:17:04;;;;;;;7.80;1.20;;;;;;;7.95;48.74;101558.84;5113953;28;20040;-72
2021/12/20 03:19:31;;;;;;;11.80;1.35;;;;;;;7.95;48.79;101554.38;5113592;28;20054;-72
2021/12/20 03:21:58;;;;;;;7.78;1.60;;;;;;;7.52;49.95;101551.75;5112877;28;20082;-72
2021/12/20 03:24:25;;;;;;;7.38;1.33;;;;;;;7.83;49.73;101561.31;5113265;28;20111;-72
2021/12/20 03:26:52;;;;;;;11.90;1.33;;;;;;;7.55;50.19;101563.97;5114568;28;20043;-72
2021/12/20 03:29:19;;;;;;;8.45;1.38;;;;;;;7.47;50.52;101567.09;5114172;28;20043;-72
2021/12/20 03:31:46;;;;;;;6.45;1.08;;;;;;;7.79;49.56;101572.22;5114263;28;20581;-72
2021/12/20 03:34:13;;;;;;;8.68;1.20;;;;;;;7.53;50.54;101574.69;5113338;28;20501;-71
2021/12/20 03:36:40;;;;;;;5.80;1.10;;;;;;;7.83;49.32;101569.28;5114423;28;20134;-72
2021/12/20 03:39:07;;;;;;;10.70;1.35;;;;;;;7.84;49.43;101568.34;5114550;28;20448;-72
2021/12/20 03:41:34;;;;;;;15.75;1.40;;;;;;;7.68;50.06;101562.25;5117328;28;20067;-72
2021/12/20 03:44:01;;;;;;;3.95;1.02;;;;;;;7.90;49.30;101561.81;5117963;28;20072;-72
2021/12/20 03:46:27;;;;;;;10.82;1.20;;;;;;;7.98;49.33;101570.13;5117353;28;20039;-72
2021/12/20 03:48:54;;;;;;;12.40;1.63;;;;;;;7.81;50.15;101572.97;5119040;28;20397;-73
2021/12/20 03:51:20;;;;;;;12.55;1.33;;;;;;;7.95;49.67;101575.63;5117030;28;20118;-72
2021/12/20 03:53:47;;;;;;;11.80;2.47;;;;;;;7.85;49.67;101575.34;5117548;28;20127;-72
2021/12/20 03:56:13;;;;;;;10.65;1.45;;;;;;;7.80;50.14;101576.59;5115565;28;20055;-72
2021/12/20 03:58:40;;;;;;;14.80;1.55;;;;;;;7.69;50.37;101574.59;5115588;28;20077;-72
2021/12/20 04:01:10;;;;;;;17.42;1.92;;;;;;;7.75;50.35;101576.84;5117032;28;20107;-73
2021/12/20 04:03:38;;;;;;;9.73;1.48;;;;;;;7.60;50.65;101580.47;5117254;28;20047;-73
2021/12/20 04:06:07;;;;;;;6.50;1.25;;;;;;;7.84;50.37;101576.28;5098011;28;20034;-71
2021/12/20 04:08:34;;;;;;;12.00;1.83;;;;;;;7.84;49.92;101575.44;5117547;28;20050;-71
2021/12/20 04:11:01;;;;;;;7.50;1.27;;;;;;;7.88;50.27;101570.81;5117850;28;20123;-72
2021/12/20 04:13:28;;;;;;;6.65;0.95;;;;;;;7.67;51.01;101581.78;5116968;28;20044;-72
2021/12/20 04:15:55;;;;;;;4.53;1.13;;;;;;;7.73;50.41;101588.53;5115602;28;20043;-71
2021/12/20 04:18:24;;;;;;;19.27;1.85;;;;;;;7.70;50.37;101589.56;5117956;28;20063;-71
2021/12/20 04:20:51;;;;;;;9.85;1.85;;;;;;;7.77;50.52;101577.63;5117110;28;20050;-71
2021/12/20 04:23:18;;;;;;;10.68;1.85;;;;;;;7.73;50.66;101577.94;5116327;28;20062;-73
2021/12/20 04:25:45;;;;;;;10.77;2.55;;;;;;;7.61;51.50;101584.81;5117011;27;20103;-71
2021/12/20 04:28:11;;;;;;;9.50;1.48;;;;;;;7.34;51.56;101580.25;5115999;28;20066;-72
2021/12/20 04:30:38;;;;;;;7.95;1.45;;;;;;;7.61;51.27;101579.50;5116056;28;20044;-71
2021/12/20 04:33:04;;;;;;;14.07;1.42;;;;;;;7.43;51.97;101583.28;5116027;28;20443;-71
2021/12/20 04:35:31;;;;;;;12.63;2.10;;;;;;;7.55;50.99;101593.16;5116608;28;20097;-72
2021/12/20 04:37:59;;;;;;;11.00;1.45;;;;;;;7.35;51.88;101586.41;5114299;28;20044;-71
2021/12/20 04:40:26;;;;;;;11.85;1.50;;;;;;;7.50;51.82;101593.44;5099431;28;20126;-72
2021/12/20 04:42:58;;;;;;;11.20;2.42;;;;;;;7.52;51.76;101596.00;5117644;28;20135;-72
2021/12/20 04:45:27;;;;;;;10.85;1.30;;;;;;;7.64;51.01;101597.91;5116898;28;20123;-72
2021/12/20 04:47:54;;;;;;;11.98;1.50;;;;;;;7.58;51.15;101595.63;5117681;28;20464;-72
2021/12/20 04:50:21;;;;;;;11.98;1.73;;;;;;;7.64;51.14;101592.59;5117135;28;20039;-72
2021/12/20 04:52:48;;;;;;;11.07;1.38;;;;;;;7.38;51.82;101591.53;5115803;28;20078;-72
2021/12/20 04:55:15;;;;;;;13.98;1.30;;;;;;;7.52;51.25;101588.06;5112510;28;20217;-72
2021/12/20 04:57:43;;;;;;;9.77;1.50;;;;;;;7.28;52.63;101593.88;5099822;28;20071;-72
2021/12/20 05:00:14;;;;;;;10.57;1.83;;;;;;;7.57;51.66;101593.91;5116417;28;20064;-72
2021/12/20 05:02:40;;;;;;;11.85;1.58;;;;;;;7.51;51.50;101603.09;5116020;28;20130;-72
2021/12/20 05:05:09;;;;;;;8.38;2.03;;;;;;;7.57;51.19;101596.56;5113881;28;20126;-72
2021/12/20 05:07:37;;;;;;;11.73;1.60;;;;;;;7.66;50.94;101584.56;5115445;28;20050;-72
2021/12/20 05:10:08;;;;;;;9.98;1.95;;;;;;;7.41;51.89;101591.34;5115534;28;20074;-72
2021/12/20 05:12:34;;;;;;;9.55;1.40;;;;;;;7.49;52.08;101589.09;5116285;28;20074;-72
2021/12/20 05:15:02;;;;;;;9.98;1.40;;;;;;;7.44;51.94;101588.50;5116719;28;20143;-72
2021/12/20 05:17:29;;;;;;;12.05;1.80;;;;;;;7.58;51.62;101591.16;5116236;28;20046;-72
2021/12/20 05:19:56;;;;;;;11.70;2.05;;;;;;;7.54;51.59;101594.94;5117545;28;20094;-72
2021/12/20 05:22:22;;;;;;;12.63;1.90;;;;;;;6.97;53.84;101602.78;5116821;28;20039;-72
2021/12/20 05:24:49;;;;;;;16.02;2.13;;;;;;;7.43;51.98;101594.75;5116459;28;20548;-72
2021/12/20 05:27:15;;;;;;;16.55;1.77;;;;;;;7.72;51.44;101598.28;5116652;28;20044;-72
2021/12/20 05:29:42;;;;;;;13.95;2.20;;;;;;;7.47;51.67;101596.28;5116194;28;20059;-72
2021/12/20 05:32:09;;;;;;;10.23;1.45;;;;;;;7.58;51.65;101600.94;5115659;28;20544;-73
2021/12/20 05:34:35;;;;;;;14.40;2.05;;;;;;;7.56;51.96;101611.66;5114520;28;20443;-72
2021/12/20 05:37:02;;;;;;;10.82;1.55;;;;;;;7.43;52.29;101609.81;5115964;28;20123;-72
2021/12/20 05:39:28;;;;;;;10.70;1.50;;;;;;;7.61;51.58;101614.00;5114577;28;20461;-72
2021/12/20 05:41:55;;;;;;;21.15;2.35;;;;;;;7.55;51.86;101622.34;5110678;28;20031;-72
2021/12/20 05:44:22;;;;;;;15.85;2.17;;;;;;;7.58;51.71;101617.69;5115179;28;20040;-72
2021/12/20 05:46:49;;;;;;;14.38;1.90;;;;;;;7.58;51.93;101620.34;5115618;28;20058;-72
2021/12/20 05:49:15;;;;;;;12.65;2.00;;;;;;;7.50;51.86;101622.63;5113593;28;20047;-72
2021/12/20 05:51:41;;;;;;;8.23;1.60;;;;;;;7.50;51.80;101622.63;5114569;28;20544;-72
2021/12/20 05:54:08;;;;;;;19.77;2.30;;;;;;;7.62;51.62;101618.38;5104736;28;20118;-72
2021/12/20 05:56:34;;;;;;;8.48;1.45;;;;;;;7.69;51.61;101622.38;5115374;28;20071;-72
2021/12/20 05:59:01;;;;;;;15.15;1.70;;;;;;;7.71;51.07;101628.44;5115118;28;20066;-71
2021/12/20 06:01:29;;;;;;;22.10;5.60;;;;;;;7.42;51.96;101640.81;5115424;28;20048;-72
2021/12/20 06:03:55;;;;;;;18.73;2.90;;;;;;;7.58;51.64;101635.41;5115132;28;20130;-72
2021/12/20 06:06:22;;;;;;;9.63;1.40;;;;;;;7.59;51.50;101639.81;5097738;28;20112;-72
2021/12/20 06:08:48;;;;;;;10.85;1.77;;;;;;;7.56;51.69;101640.84;5114673;28;21141;-72
2021/12/20 06:11:14;;;;;;;15.18;2.28;;;;;;;7.41;52.17;101639.06;5115057;28;20071;-72
2021/12/20 06:13:41;;;;;;;15.50;2.10;;;;;;;7.37;52.29;101633.09;5115086;28;20531;-72
2021/12/20 06:16:07;;;;;;;12.32;1.33;;;;;;;7.46;51.93;101630.88;5114138;28;20122;-72
2021/12/20 06:18:34;;;;;;;6.40;1.65;;;;;;;7.45;52.03;101640.63;5114861;28;20067;-72
2021/12/20 06:21:00;;;;;;;13.50;2.05;;;;;;;7.36;52.22;101642.00;5113978;28;20131;-72
2021/12/20 06:23:27;;;;;;;13.80;2.17;;;;;;;7.61;51.45;101641.38;5116588;28;20070;-72
2021/12/20 06:25:53;;;;;;;10.18;1.70;;;;;;;7.48;51.64;101644.88;5113900;28;20103;-72
2021/12/20 06:28:20;;;;;;;4.53;1.73;;;;;;;7.30;52.09;101647.66;5114997;28;20039;-71
2021/12/20 06:30:47;;;;;;;11.77;2.05;;;;;;;7.30;52.01;101647.66;5115160;28;20471;-72
2021/12/20 06:33:14;;;;;;;9.13;2.25;;;;;;;7.26;52.41;101645.31;5113781;28;20094;-72
2021/12/20 06:35:40;;;;;;;19.30;2.22;;;;;;;7.41;52.55;101649.69;5113765;28;20109;-72
2021/12/20 06:38:08;;;;;;;10.20;1.90;;;;;;;7.63;51.29;101657.25;5114860;28;20039;-72
2021/12/20 06:40:35;;;;;;;13.98;2.45;;;;;;;7.41;52.28;101660.31;5114991;28;20143;-72
2021/12/20 06:43:04;;;;;;;11.05;2.58;;;;;;;7.71;51.32;101651.47;5113392;28;20543;-72
2021/12/20 06:45:30;;;;;;;18.30;2.28;;;;;;;7.50;52.02;101653.59;5113830;28;20487;-72
2021/12/20 06:47:58;;;;;;;12.05;1.75;;;;;;;7.66;51.31;101658.88;5107316;28;20067;-72
2021/12/20 06:50:24;;;;;;;14.43;1.83;;;;;;;7.56;51.42;101655.91;5107345;28;20136;-72
2021/12/20 06:52:51;;;;;;;10.68;2.05;;;;;;;7.53;51.48;101661.38;5114754;28;20076;-72
2021/12/20 06:55:17;;;;;;;7.80;1.73;;;;;;;7.61;51.28;101664.41;5113986;28;20067;-72
2021/12/20 06:57:44;;;;;;;14.52;3.30;;;;;;;7.63;51.67;101663.41;5114707;28;20043;-72
2021/12/20 07:00:11;;;;;;;12.02;3.22;;;;;;;7.63;51.54;101678.47;5115186;28;20067;-72
2021/12/20 07:02:37;;;;;;;6.20;1.83;;;;;;;7.65;51.24;101673.06;5113983;28;20039;-72
2021/12/20 07:05:05;;;;;;;14.98;2.40;;;;;;;7.64;51.17;101672.19;5113211;28;20043;-72
2021/12/20 07:07:31;;;;;;;17.80;2.80;;;;;;;7.36;52.07;101673.84;5114920;28;20539;-72
2021/12/20 07:09:58;;;;;;;19.42;2.80;;;;;;;7.73;51.11;101670.81;5114878;28;20134;-75
2021/12/20 07:12:24;;;;;;;21.58;3.40;;;;;;;7.63;51.81;101675.81;5113033;28;20118;-72
2021/12/20 07:14:51;;;;;;;19.25;3.03;;;;;;;7.73;51.10;101670.81;5115402;28;20388;-72
2021/12/20 07:17:19;;;;;;;20.30;2.88;;;;;;;7.63;51.33;101675.81;5117099;28;20046;-72
2021/12/20 07:19:46;;;;;;;18.85;3.72;;;;;;;7.65;51.04;101684.50;5118419;28;20074;-72
2021/12/20 07:22:13;;;;;;;10.10;1.98;;;;;;;7.79;50.98;101689.00;5118667;27;20811;-72
2021/12/20 07:24:39;;;;;;;32.67;3.65;;;;;;;7.36;52.32;101686.25;5099183;28;20047;-72
2021/12/20 07:27:07;;;;;;;20.02;3.42;;;;;;;7.64;51.65;101685.47;5116934;28;20044;-72
2021/12/20 07:29:35;;;;;;;23.10;3.45;;;;;;;7.75;51.21;101690.97;5113980;28;20128;-72
2021/12/20 07:32:01;;;;;;;12.30;2.53;;;;;;;7.77;51.00;101693.56;5118221;28;20050;-72
2021/12/20 07:34:28;;;;;;;23.38;2.83;;;;;;;7.33;51.85;101699.69;5118345;28;20113;-72
2021/12/20 07:36:54;;;;;;;19.67;2.25;;;;;;;7.44;52.33;101701.72;5118340;28;20436;-72
2021/12/20 07:39:21;;;;;;;17.60;2.42;;;;;;;7.55;51.64;101707.22;5117456;28;20067;-73
2021/12/20 07:41:51;;;;;;;27.20;2.80;;;;;;;7.72;51.16;101709.75;5097527;28;20135;-72
2021/12/20 07:44:18;;;;;;;18.08;3.88;;;;;;;7.80;50.97;101712.81;5097614;28;20074;-72
2021/12/20 07:46:44;;;;;;;10.73;2.38;;;;;;;6.76;53.75;101713.53;5097539;28;20131;-72
2021/12/20 07:49:11;;;;;;;16.50;3.05;;;;;;;7.67;51.30;101721.59;5116142;28;20437;-72
2021/12/20 07:51:38;;;;;;;13.13;2.58;;;;;;;7.45;51.90;101721.97;5118609;28;20063;-72
2021/12/20 07:54:04;;;;;;;24.15;3.22;;;;;;;7.54;51.94;101719.66;5118324;28;20152;-72
2021/12/20 07:56:31;;;;;;;19.77;2.78;;;;;;;7.76;51.31;101719.25;5118395;28;20071;-72
2021/12/20 07:58:57;;;;;;;16.35;3.22;;;;;;;7.83;50.77;101730.38;5116763;28;20063;-72
2021/12/20 08:01:24;;;;;;;21.35;3.03;;;;;;;7.78;50.80;101727.97;5115596;28;20388;-72
2021/12/20 08:03:50;;;;;;;20.65;3.10;;;;;;;7.33;52.18;101727.06;5118011;28;20047;-72
2021/12/20 08:06:17;;;;;;;10.05;2.22;;;;;;;7.24;52.58;101726.72;5117324;28;20047;-72
2021/12/20 08:08:44;;;;;;;17.33;3.00;;;;;;;7.57;51.90;101731.88;5115860;28;20043;-72
2021/12/20 08:11:11;;;;;;;14.10;2.10;;;;;;;7.65;51.51;101737.59;5099337;28;20175;-72
2021/12/20 08:13:44;;;;;;;12.88;2.28;;;;;;;7.55;51.47;101731.13;5118879;28;20407;-73
2021/12/20 08:16:15;;;;;;;9.40;2.40;;;;;;;7.54;51.76;101740.88;5115496;27;20502;-72
2021/12/20 08:18:43;;;;;;;10.02;1.95;;;;;;;6.95;53.17;101737.19;5115338;28;20048;-72
2021/12/20 08:21:14;;;;;;;13.77;1.95;;;;;;;7.63;51.86;101744.81;5116612;27;20062;-72
2021/12/20 08:23:43;;;;;;;11.52;2.20;;;;;;;7.90;50.80;101744.97;5116318;28;20047;-72
2021/12/20 08:26:10;;;;;;;16.13;2.50;;;;;;;6.79;53.75;101737.22;5116015;28;20085;-73
2021/12/20 08:28:36;;;;;;;11.00;1.95;;;;;;;7.64;51.84;101738.53;5115461;28;20447;-72
2021/12/20 08:31:04;;;;;;;21.52;3.03;;;;;;;7.84;50.87;101738.22;5117524;28;20138;-72
2021/12/20 08:33:32;;;;;;;10.95;2.78;;;;;;;7.89;51.04;101750.34;5115642;28;20388;-74
2021/12/20 08:36:12;;;;;;;11.75;2.50;;;;;;;7.89;50.60;101756.53;5116949;28;20044;-73
2021/12/20 08:38:40;;;;;;;15.07;2.80;;;;;;;7.89;50.73;101758.31;5115794;28;20104;-73
2021/12/20 08:41:08;;;;;;;15.45;2.58;;;;;;;7.99;50.52;101756.81;5117351;28;20063;-73
2021/12/20 08:43:34;;;;;;;16.02;2.58;;;;;;;7.76;51.29;101763.50;5117424;28;20440;-73
2021/12/20 08:46:02;;;;;;;11.75;2.38;;;;;;;7.94;51.01;101772.19;5115648;28;20126;-73
2021/12/20 08:48:33;;;;;;;23.33;5.68;;;;;;;8.04;50.67;101768.03;5117871;28;20047;-73
2021/12/20 08:51:01;;;;;;;18.48;4.00;;;;;;;7.93;51.03;101765.16;5116679;28;20126;-73
2021/12/20 08:53:28;;;;;;;9.98;2.50;;;;;;;7.94;51.25;101759.78;5116297;27;20043;-73
2021/12/20 08:55:55;;;;;;;12.02;2.63;;;;;;;7.64;51.82;101767.72;5116456;28;20119;-73
2021/12/20 08:58:24;;;;;;;5.50;1.65;;;;;;;8.10;50.57;101765.00;5115804;28;20065;-73
2021/12/20 09:00:51;;;;;;;15.27;2.53;;;;;;;8.12;50.74;101765.78;5115661;28;20092;-73
2021/12/20 09:03:18;;;;;;;18.20;3.28;;;;;;;8.10;50.84;101765.00;5117981;28;20107;-73
2021/12/20 09:05:45;;;;;;;12.85;2.40;;;;;;;8.24;50.85;101767.69;5111984;28;20073;-74
2021/12/20 09:08:12;;;;;;;17.15;2.85;;;;;;;8.20;51.00;101771.47;5116816;28;20476;-73
2021/12/20 09:10:38;;;;;;;25.30;2.38;;;;;;;8.33;50.40;101782.19;5116913;28;20039;-73
2021/12/20 09:13:05;;;;;;;13.70;2.90;;;;;;;8.42;50.48;101787.00;5099324;28;20157;-73
2021/12/20 09:15:32;;;;;;;13.80;3.17;;;;;;;8.45;50.37;101785.94;5115220;28;20105;-73
2021/12/20 09:17:59;;;;;;;15.20;2.42;;;;;;;8.39;50.38;101786.34;5096236;28;20555;-73
2021/12/20 09:20:27;;;;;;;11.23;2.78;;;;;;;8.41;50.47;101784.41;5115813;28;20107;-73
2021/12/20 09:23:02;;;;;;;7.32;1.83;;;;;;;8.32;50.22;101786.66;5114558;28;20123;-73
2021/12/20 09:25:30;;;;;;;13.45;2.22;;;;;;;8.29;50.34;101786.84;5116520;28;20126;-74
2021/12/20 09:27:57;;;;;;;9.90;2.28;;;;;;;8.29;50.76;101789.50;5116203;28;20503;-73
2021/12/20 09:30:26;;;;;;;12.57;2.92;;;;;;;8.21;51.15;101797.09;5115367;28;20126;-74
2021/12/20 09:32:57;;;;;;;11.88;1.90;;;;;;;8.29;50.32;101805.44;5102416;28;20554;-74
2021/12/20 09:35:24;;;;;;;14.40;2.70;;;;;;;8.47;50.40;101803.50;5114580;28;20475;-73
2021/12/20 09:37:51;;;;;;;12.65;2.15;;;;;;;8.55;49.87;101798.56;5113558;28;20464;-74
2021/12/20 09:40:31;;;;;;;13.52;2.95;;;;;;;8.57;49.62;101809.97;5114992;28;20071;-73
2021/12/20 09:43:00;;;;;;;23.67;2.70;;;;;;;8.73;49.80;101799.25;5096617;28;20099;-72
2021/12/20 09:45:28;;;;;;;14.13;2.63;;;;;;;8.69;49.77;101805.66;5113739;28;20111;-72
2021/12/20 09:47:55;;;;;;;16.75;2.67;;;;;;;9.05;48.88;101817.63;5114704;28;20106;-73
2021/12/20 09:50:22;;;;;;;8.55;2.00;;;;;;;8.68;49.56;101816.41;5096784;28;20047;-73
2021/12/20 09:52:49;;;;;;;10.20;2.05;;;;;;;8.89;49.57;101812.41;5115117;28;20066;-72
2021/12/20 09:55:16;;;;;;;10.88;2.13;;;;;;;9.10;48.50;101819.97;5113771;28;20048;-75
2021/12/20 09:57:45;;;;;;;14.77;2.70;;;;;;;9.57;48.06;101816.91;5115454;28;20394;-73
2021/12/20 10:00:14;;;;;;;12.05;2.50;;;;;;;9.49;47.86;101822.75;5112190;28;20044;-73
2021/12/20 10:02:46;;;;;;;18.17;2.38;;;;;;;10.12;46.67;101826.53;5114357;28;20119;-74
2021/12/20 10:05:16;;;;;;;7.20;1.88;;;;;;;10.21;45.78;101823.22;5114386;28;20077;-72
2021/12/20 10:07:47;;;;;;;7.90;1.88;;;;;;;10.19;45.71;101826.97;5113229;27;20078;-73
2021/12/20 10:10:40;;;;;;;11.25;2.33;;;;;;;10.92;44.81;101821.03;5113908;28;20134;-73
2021/12/20 10:13:08;;;;;;;11.63;2.33;;;;;;;11.13;43.96;101835.47;5114217;28;20071;-72
2021/12/20 10:15:37;;;;;;;14.40;2.05;;;;;;;11.59;42.87;101815.25;5113165;28;20078;-73
2021/12/20 10:18:05;;;;;;;12.82;2.55;;;;;;;11.27;43.02;101828.31;5114035;28;20075;-73
2021/12/20 10:20:34;;;;;;;4.35;2.20;;;;;;;11.09;43.44;101831.34;5114054;28;20051;-73
2021/12/20 10:23:15;;;;;;;8.18;2.03;;;;;;;11.45;42.53;101831.44;5114359;28;20134;-72
2021/12/20 10:25:44;;;;;;;8.53;2.00;;;;;;;11.51;42.60;101833.66;5115447;28;20097;-73
2021/12/20 10:28:14;;;;;;;15.40;2.58;;;;;;;11.64;42.76;101829.13;5114059;28;20048;-74
2021/12/20 10:30:43;;;;;;;14.10;2.33;;;;;;;11.50;42.60;101829.25;5112512;28;20127;-73
2021/12/20 10:33:16;;;;;;;9.02;2.08;;;;;;;11.33;42.29;101828.72;5112102;28;20473;-73
2021/12/20 10:35:52;;;;;;;9.68;2.30;;;;;;;10.59;43.57;101835.75;5111501;28;20047;-72
2021/12/20 10:38:37;;;;;;;9.85;2.15;;;;;;;10.63;44.33;101837.28;5112821;28;20047;-72
2021/12/20 10:41:05;;;;;;;13.90;2.40;;;;;;;11.07;43.69;101841.25;5113742;28;20488;-73
2021/12/20 10:43:40;;;;;;;10.25;2.65;;;;;;;11.66;42.14;101841.38;5112464;28;20083;-73
2021/12/20 10:46:13;;;;;;;13.43;2.50;;;;;;;11.85;41.78;101843.56;5110003;28;20403;-74
2021/12/20 10:48:44;;;;;;;14.55;2.78;;;;;;;12.05;41.38;101833.19;5111575;28;20544;-73
2021/12/20 10:51:22;;;;;;;12.85;1.92;;;;;;;12.48;41.77;101830.75;5119612;28;20067;-74
2021/12/20 10:53:57;;;;;;;8.32;2.25;;;;;;;12.75;40.89;101826.88;5099823;28;20135;-74
2021/12/20 10:56:26;;;;;;;7.97;2.17;;;;;;;12.69;41.20;101832.72;5117460;28;20044;-72
2021/12/20 10:58:54;;;;;;;7.50;2.10;;;;;;;12.95;40.53;101839.50;5100631;28;20067;-73
2021/12/20 11:02:10;;;;;;;10.23;2.70;;;;;;;12.95;40.35;101838.66;5121266;27;20043;-73
2021/12/20 11:04:36;;;;;;;10.75;1.90;;;;;;;12.57;40.78;101840.75;5116991;28;20036;-75
2021/12/20 11:09:35;;;;;;;11.65;2.05;;;;;;;12.80;40.24;101846.09;5117462;28;20464;-74
2021/12/20 11:12:05;;;;;;;17.30;4.00;;;;;;;12.77;39.83;101847.19;5116204;28;20134;-76
2021/12/20 11:14:36;;;;;;;14.55;2.55;;;;;;;13.31;38.90;101838.41;5115845;28;20113;-76
2021/12/20 11:17:09;;;;;;;16.42;4.80;;;;;;;13.08;39.01;101834.88;5099430;28;20047;-75
2021/12/20 11:19:38;;;;;;;11.25;2.97;;;;;;;13.19;39.04;101838.53;5116228;28;20044;-75
2021/12/20 11:22:11;;;;;;;12.23;2.17;;;;;;;13.24;39.06;101834.53;5117616;28;20123;-75
2021/12/20 11:24:47;;;;;;;10.32;1.80;;;;;;;12.78;39.84;101826.63;5116834;28;20502;-75
2021/12/20 11:27:35;;;;;;;9.60;2.45;;;;;;;12.77;39.75;101833.78;5118521;28;20051;-75
2021/12/20 11:30:08;;;;;;;11.02;2.17;;;;;;;12.91;39.71;101822.00;5118634;28;20080;-75
2021/12/20 11:32:36;;;;;;;6.45;1.90;;;;;;;12.81;40.48;101823.69;5118017;28;20499;-75
2021/12/20 11:35:03;;;;;;;9.20;2.10;;;;;;;13.13;39.42;101829.19;5115780;28;20502;-74
2021/12/20 11:37:30;;;;;;;8.93;2.40;;;;;;;12.31;41.22;101828.53;5116045;28;20097;-74
2021/12/20 11:39:58;;;;;;;10.63;2.00;;;;;;;12.57;40.46;101830.03;5116543;28;20040;-74
2021/12/20 11:42:25;;;;;;;15.38;2.45;;;;;;;12.59;40.70;101827.22;5116521;28;20410;-73
2021/12/20 11:44:58;;;;;;;12.80;2.10;;;;;;;12.46;41.19;101832.69;5117626;28;20047;-73
2021/12/20 11:47:31;;;;;;;10.27;2.25;;;;;;;11.88;42.11;101837.13;5118258;28;20124;-75